Time;durP1;ratioP1;P1;durP2;ratioP2;P2;SDS_P1;SDS_P2;PMS_P1;PMS_P2;Temp;Humidity;BMP_temperature;BMP_pressure;BME280_temperature;BME280_humidity;BME280_pressure;Samples;Min_cycle;Max_cycle;Signal;HPM_P1;HPM_P2
2023/10/30 00:00:25;;;;;;;12.80;2.13;;;15.40;99.60;;;;;;4957569;28;20122;-72
2023/10/30 00:02:50;;;;;;;11.02;1.98;;;15.40;99.70;;;;;;4957679;29;20439;-72
2023/10/30 00:05:16;;;;;;;9.88;2.00;;;15.40;99.70;;;;;;4956974;28;20496;-72
2023/10/30 00:07:41;;;;;;;9.52;2.75;;;15.40;99.60;;;;;;4957633;28;20392;-72
2023/10/30 00:10:08;;;;;;;10.05;2.45;;;15.40;99.70;;;;;;4957276;29;20024;-72
2023/10/30 00:12:33;;;;;;;10.43;2.35;;;15.40;99.80;;;;;;4957156;28;20388;-72
2023/10/30 00:15:03;;;;;;;9.57;1.92;;;15.40;99.80;;;;;;4957329;28;20027;-73
2023/10/30 00:17:30;;;;;;;13.25;2.50;;;15.40;99.90;;;;;;4957351;28;20114;-73
2023/10/30 00:19:56;;;;;;;12.05;2.05;;;15.40;99.80;;;;;;4957011;28;20023;-72
2023/10/30 00:22:22;;;;;;;9.00;1.85;;;15.30;99.80;;;;;;4971864;28;20456;-72
2023/10/30 00:24:47;;;;;;;9.35;2.40;;;15.40;99.90;;;;;;4957120;29;20031;-73
2023/10/30 00:27:13;;;;;;;10.48;2.40;;;15.30;99.90;;;;;;4956992;29;20039;-74
2023/10/30 00:29:40;;;;;;;7.97;2.20;;;15.40;99.90;;;;;;4957127;28;20028;-72
2023/10/30 00:32:07;;;;;;;5.38;1.75;;;15.30;99.90;;;;;;4956525;29;20078;-73
2023/10/30 00:34:34;;;;;;;10.15;1.92;;;15.30;99.90;;;;;;4956805;28;20031;-73
2023/10/30 00:37:00;;;;;;;8.85;1.80;;;15.30;99.90;;;;;;4957026;28;20023;-73
2023/10/30 00:39:25;;;;;;;14.10;2.55;;;15.30;99.90;;;;;;4956452;28;20027;-73
2023/10/30 00:41:51;;;;;;;9.60;1.90;;;15.30;99.90;;;;;;4956715;28;20036;-72
2023/10/30 00:44:16;;;;;;;11.57;2.05;;;15.30;99.90;;;;;;4956767;28;20030;-72
2023/10/30 00:46:43;;;;;;;7.03;2.10;;;15.20;99.90;;;;;;4956547;29;20036;-72
2023/10/30 00:49:09;;;;;;;7.88;2.22;;;15.20;99.90;;;;;;4956725;28;20034;-72
2023/10/30 00:51:34;;;;;;;7.72;2.38;;;15.20;99.90;;;;;;4956660;29;20031;-74
2023/10/30 00:54:00;;;;;;;9.57;1.95;;;15.20;99.90;;;;;;4956443;29;20027;-73
2023/10/30 00:56:25;;;;;;;11.88;2.35;;;15.20;99.90;;;;;;4955187;29;20046;-73
2023/10/30 00:58:51;;;;;;;11.07;2.92;;;15.20;99.90;;;;;;4956686;29;20034;-72
2023/10/30 01:01:17;;;;;;;9.10;1.80;;;15.20;99.90;;;;;;4955882;29;20035;-73
2023/10/30 01:03:43;;;;;;;10.20;2.05;;;15.20;99.90;;;;;;4971112;28;20050;-73
2023/10/30 01:06:09;;;;;;;11.57;2.42;;;15.20;99.90;;;;;;4956411;28;20031;-72
2023/10/30 01:08:35;;;;;;;8.50;2.00;;;15.20;99.90;;;;;;4956461;29;20023;-73
2023/10/30 01:11:01;;;;;;;8.57;2.30;;;15.20;99.90;;;;;;4956475;28;20023;-73
2023/10/30 01:13:26;;;;;;;10.05;2.08;;;15.10;99.90;;;;;;4955701;29;20027;-72
2023/10/30 01:15:53;;;;;;;7.88;1.63;;;15.20;99.90;;;;;;4956428;28;20027;-73
2023/10/30 01:18:19;;;;;;;10.00;2.15;;;15.10;99.90;;;;;;4956145;29;20027;-73
2023/10/30 01:20:46;;;;;;;10.77;2.40;;;15.10;99.90;;;;;;4956069;28;20496;-73
2023/10/30 01:23:12;;;;;;;7.32;2.13;;;15.10;99.90;;;;;;4955862;28;20030;-72
2023/10/30 01:25:38;;;;;;;12.02;2.47;;;15.10;99.90;;;;;;4956177;28;20186;-73
2023/10/30 01:28:04;;;;;;;8.85;2.00;;;15.10;99.90;;;;;;4955776;29;20553;-73
2023/10/30 01:30:29;;;;;;;9.35;2.10;;;15.10;99.90;;;;;;4955731;29;20532;-72
2023/10/30 01:32:55;;;;;;;11.05;2.42;;;15.10;99.90;;;;;;4955630;29;20038;-72
2023/10/30 01:35:20;;;;;;;7.07;1.98;;;15.00;99.90;;;;;;4955959;28;20035;-72
2023/10/30 01:37:46;;;;;;;10.35;2.05;;;15.10;99.90;;;;;;4955870;29;20473;-71
2023/10/30 01:40:11;;;;;;;10.52;2.33;;;15.00;99.90;;;;;;4955770;29;20042;-72
2023/10/30 01:42:37;;;;;;;10.68;2.30;;;15.00;99.90;;;;;;4954096;28;20385;-71
2023/10/30 01:45:03;;;;;;;10.40;1.73;;;15.00;99.90;;;;;;4955555;28;20461;-71
2023/10/30 01:47:28;;;;;;;8.93;2.08;;;15.00;99.90;;;;;;4955586;29;20472;-71
2023/10/30 01:49:57;;;;;;;13.77;2.28;;;15.00;99.90;;;;;;4955306;28;20038;-72
2023/10/30 01:52:24;;;;;;;11.30;2.25;;;15.00;99.90;;;;;;4954831;28;20356;-73
2023/10/30 01:54:53;;;;;;;10.05;2.00;;;15.00;99.90;;;;;;4955678;28;20023;-72
2023/10/30 01:57:24;;;;;;;7.85;1.67;;;15.00;99.90;;;;;;4955428;29;20027;-73
2023/10/30 01:59:51;;;;;;;7.88;2.17;;;15.00;99.90;;;;;;4955433;28;20106;-73
2023/10/30 02:02:20;;;;;;;13.43;2.55;;;15.00;99.90;;;;;;4954909;28;20039;-72
2023/10/30 02:04:46;;;;;;;10.40;2.17;;;14.90;99.90;;;;;;4955338;28;20042;-72
2023/10/30 02:07:12;;;;;;;10.18;2.03;;;14.90;99.90;;;;;;4955401;29;20539;-72
2023/10/30 02:09:38;;;;;;;9.95;1.67;;;14.90;99.90;;;;;;4955437;28;20055;-72
2023/10/30 02:12:03;;;;;;;12.77;3.03;;;15.00;99.90;;;;;;4955291;29;20031;-72
2023/10/30 02:14:29;;;;;;;8.50;2.50;;;14.90;99.90;;;;;;4954410;29;20058;-73
2023/10/30 02:16:55;;;;;;;11.32;2.25;;;14.90;99.90;;;;;;4955489;28;20088;-72
2023/10/30 02:19:25;;;;;;;7.50;1.60;;;14.90;99.90;;;;;;4955450;29;20480;-72
2023/10/30 02:21:52;;;;;;;6.25;1.60;;;15.00;99.90;;;;;;4955300;28;20043;-72
2023/10/30 02:24:18;;;;;;;7.93;2.13;;;14.90;99.90;;;;;;4954995;29;20019;-72
2023/10/30 02:26:44;;;;;;;7.20;1.70;;;14.90;99.90;;;;;;4955103;29;20094;-72
2023/10/30 02:29:09;;;;;;;10.93;2.17;;;14.90;99.90;;;;;;4954995;29;20023;-73
2023/10/30 02:31:35;;;;;;;10.60;2.17;;;14.90;99.90;;;;;;4955077;28;20122;-72
2023/10/30 02:34:01;;;;;;;11.20;2.40;;;14.80;99.90;;;;;;4954905;28;20094;-72
2023/10/30 02:36:26;;;;;;;8.60;2.33;;;14.90;99.90;;;;;;4955347;29;20444;-72
2023/10/30 02:38:52;;;;;;;14.13;2.40;;;14.80;99.90;;;;;;4955000;28;20473;-72
2023/10/30 02:41:19;;;;;;;9.75;2.53;;;14.80;99.90;;;;;;4955089;28;20087;-72
2023/10/30 02:43:44;;;;;;;8.88;2.20;;;14.80;99.90;;;;;;4954355;29;20031;-72
2023/10/30 02:46:10;;;;;;;9.60;1.90;;;14.90;99.90;;;;;;4955049;28;20103;-72
2023/10/30 02:48:36;;;;;;;7.22;1.90;;;14.80;99.90;;;;;;4954915;28;20027;-73
2023/10/30 02:51:02;;;;;;;7.90;2.05;;;14.80;99.90;;;;;;4955090;28;20540;-72
2023/10/30 02:53:27;;;;;;;11.73;2.10;;;14.80;99.90;;;;;;4954582;28;20041;-72
2023/10/30 02:55:53;;;;;;;8.77;1.77;;;14.80;99.90;;;;;;4954796;29;20062;-72
2023/10/30 02:58:18;;;;;;;7.40;1.90;;;14.80;99.90;;;;;;4954661;29;20031;-72
2023/10/30 03:00:44;;;;;;;7.05;1.92;;;14.80;99.90;;;;;;4953625;29;20015;-73
2023/10/30 03:03:09;;;;;;;9.38;2.00;;;14.80;99.90;;;;;;4957378;28;20055;-72
2023/10/30 03:05:35;;;;;;;8.05;1.80;;;14.80;99.90;;;;;;4958511;29;20035;-72
2023/10/30 03:08:01;;;;;;;9.50;1.85;;;14.70;99.90;;;;;;4973416;28;20020;-72
2023/10/30 03:10:30;;;;;;;8.25;2.13;;;14.80;99.90;;;;;;4958637;28;20024;-72
2023/10/30 03:12:56;;;;;;;9.60;1.73;;;14.70;99.90;;;;;;4972718;28;20114;-71
2023/10/30 03:15:22;;;;;;;9.25;2.10;;;14.80;99.90;;;;;;4958540;28;20172;-72
2023/10/30 03:17:48;;;;;;;12.10;2.42;;;14.70;99.90;;;;;;4958341;29;20019;-72
2023/10/30 03:20:14;;;;;;;8.98;1.98;;;14.70;99.90;;;;;;4973386;28;20078;-72
2023/10/30 03:22:40;;;;;;;8.95;2.53;;;14.70;99.90;;;;;;4957920;28;20100;-72
2023/10/30 03:25:06;;;;;;;13.82;2.70;;;14.70;99.90;;;;;;4958202;28;20396;-72
2023/10/30 03:27:33;;;;;;;10.65;1.77;;;14.70;99.90;;;;;;4958039;28;20484;-72
2023/10/30 03:29:59;;;;;;;8.68;2.25;;;14.70;99.90;;;;;;4958424;28;20019;-72
2023/10/30 03:32:25;;;;;;;14.05;2.83;;;14.70;99.90;;;;;;4958237;28;20090;-72
2023/10/30 03:34:50;;;;;;;9.27;1.88;;;14.70;99.90;;;;;;4957748;29;20031;-72
2023/10/30 03:37:16;;;;;;;16.98;2.35;;;14.70;99.90;;;;;;4958234;29;20034;-72
2023/10/30 03:39:41;;;;;;;9.82;2.17;;;14.60;99.90;;;;;;4956912;28;20028;-74
2023/10/30 03:42:07;;;;;;;7.53;2.25;;;14.60;99.90;;;;;;4958012;28;20035;-73
2023/10/30 03:44:33;;;;;;;9.95;2.58;;;14.60;99.90;;;;;;4957691;28;20110;-73
2023/10/30 03:46:58;;;;;;;14.90;2.70;;;14.60;99.90;;;;;;4972786;28;20062;-73
2023/10/30 03:49:24;;;;;;;10.55;2.30;;;14.60;99.90;;;;;;4957927;29;20031;-73
2023/10/30 03:51:51;;;;;;;9.27;1.73;;;14.60;99.90;;;;;;4957910;28;20058;-73
2023/10/30 03:54:16;;;;;;;9.05;2.30;;;14.60;99.90;;;;;;4972334;28;20412;-73
2023/10/30 03:56:42;;;;;;;12.30;2.35;;;14.50;99.90;;;;;;4957646;28;20480;-74
2023/10/30 03:59:07;;;;;;;11.32;2.20;;;14.60;99.90;;;;;;4957849;28;20034;-74
2023/10/30 04:01:35;;;;;;;7.00;2.33;;;14.60;99.90;;;;;;4957763;29;20228;-74
2023/10/30 04:04:01;;;;;;;10.63;2.08;;;14.60;99.90;;;;;;4957194;29;20038;-73
2023/10/30 04:06:27;;;;;;;10.88;2.40;;;14.60;99.90;;;;;;4957542;28;20031;-73
2023/10/30 04:08:52;;;;;;;7.22;1.50;;;14.60;99.90;;;;;;4957316;28;20034;-73
2023/10/30 04:11:18;;;;;;;6.97;1.60;;;14.60;99.90;;;;;;4956990;29;20429;-73
2023/10/30 04:13:44;;;;;;;8.60;1.77;;;14.60;99.90;;;;;;4956353;28;20050;-73
2023/10/30 04:16:11;;;;;;;10.57;1.98;;;14.50;99.90;;;;;;4957464;29;20023;-73
2023/10/30 04:18:37;;;;;;;7.65;1.98;;;14.60;99.90;;;;;;4957623;28;20106;-73
2023/10/30 04:21:03;;;;;;;6.47;1.55;;;14.60;99.90;;;;;;4957213;29;20091;-73
2023/10/30 04:23:29;;;;;;;9.05;1.90;;;14.50;99.90;;;;;;4956896;28;20059;-74
2023/10/30 04:25:56;;;;;;;14.68;2.17;;;14.60;99.90;;;;;;4971790;28;20028;-74
2023/10/30 04:28:21;;;;;;;8.48;2.28;;;14.50;99.90;;;;;;4972084;28;20027;-73
2023/10/30 04:30:47;;;;;;;9.13;1.70;;;14.50;99.90;;;;;;4957179;28;20469;-73
2023/10/30 04:33:13;;;;;;;7.65;1.98;;;14.60;99.90;;;;;;4956680;28;20554;-73
2023/10/30 04:35:39;;;;;;;13.00;2.20;;;14.50;99.90;;;;;;4956802;29;20078;-73
2023/10/30 04:38:04;;;;;;;7.30;1.60;;;14.60;99.90;;;;;;4957174;29;20036;-72
2023/10/30 04:40:30;;;;;;;11.65;1.98;;;14.60;99.90;;;;;;4956444;29;20484;-72
2023/10/30 04:42:55;;;;;;;9.32;2.00;;;14.60;99.90;;;;;;4956713;29;20055;-73
2023/10/30 04:45:21;;;;;;;8.02;1.98;;;14.50;99.90;;;;;;4937573;29;20104;-73
2023/10/30 04:47:47;;;;;;;9.02;1.75;;;14.60;99.90;;;;;;4937708;29;20024;-73
2023/10/30 04:50:12;;;;;;;13.02;2.67;;;14.60;99.90;;;;;;4937585;29;20073;-73
2023/10/30 04:52:38;;;;;;;13.32;2.42;;;14.50;99.90;;;;;;4937463;29;20111;-74
2023/10/30 04:55:04;;;;;;;9.02;1.70;;;14.50;99.90;;;;;;4953188;29;20448;-73
2023/10/30 04:57:29;;;;;;;9.32;1.67;;;14.50;99.90;;;;;;4956129;29;20032;-73
2023/10/30 04:59:55;;;;;;;7.97;2.67;;;14.50;99.90;;;;;;4955469;28;20019;-73
2023/10/30 05:02:21;;;;;;;10.63;2.20;;;14.50;99.90;;;;;;4956653;28;20488;-73
2023/10/30 05:04:47;;;;;;;8.93;1.70;;;14.50;99.90;;;;;;4956139;28;20039;-73
2023/10/30 05:07:12;;;;;;;12.07;2.10;;;14.50;99.90;;;;;;4956140;29;20113;-73
2023/10/30 05:09:38;;;;;;;8.57;1.73;;;14.50;99.90;;;;;;4955537;28;20087;-73
2023/10/30 05:12:04;;;;;;;8.90;1.88;;;14.50;99.90;;;;;;4956266;28;20115;-74
2023/10/30 05:14:30;;;;;;;10.45;2.15;;;14.50;99.90;;;;;;4954779;28;20365;-72
2023/10/30 05:16:55;;;;;;;11.85;1.88;;;14.50;99.90;;;;;;4956226;29;20137;-72
2023/10/30 05:19:21;;;;;;;7.75;1.73;;;14.50;99.90;;;;;;4955940;29;20031;-75
2023/10/30 05:21:46;;;;;;;9.52;1.88;;;14.50;99.90;;;;;;4956078;28;20035;-73
2023/10/30 05:24:12;;;;;;;13.63;2.05;;;14.50;99.90;;;;;;4955581;28;20035;-72
2023/10/30 05:26:38;;;;;;;11.20;2.55;;;14.50;99.90;;;;;;4955856;28;20086;-72
2023/10/30 05:29:03;;;;;;;12.52;2.95;;;14.50;99.90;;;;;;4955721;29;20436;-72
2023/10/30 05:31:29;;;;;;;6.95;1.60;;;14.50;99.90;;;;;;4955908;28;20023;-72
2023/10/30 05:33:55;;;;;;;10.85;2.30;;;14.50;99.90;;;;;;4955621;29;20464;-71
2023/10/30 05:36:21;;;;;;;11.20;1.92;;;14.50;99.90;;;;;;4954330;28;20044;-72
2023/10/30 05:38:47;;;;;;;8.90;1.73;;;14.50;99.90;;;;;;4954749;29;20027;-70
2023/10/30 05:41:12;;;;;;;10.10;1.90;;;14.50;99.90;;;;;;4963277;28;20088;-72
2023/10/30 05:43:38;;;;;;;12.07;2.70;;;14.50;99.90;;;;;;4972086;28;20060;-73
2023/10/30 05:46:04;;;;;;;10.02;2.75;;;14.50;99.90;;;;;;4956007;28;20078;-72
2023/10/30 05:48:29;;;;;;;14.40;2.80;;;14.50;99.90;;;;;;4955421;28;20027;-73
2023/10/30 05:50:55;;;;;;;14.57;2.35;;;14.50;99.90;;;;;;4952804;28;20046;-74
2023/10/30 05:53:21;;;;;;;10.45;2.03;;;14.50;99.90;;;;;;4953478;28;20023;-73
2023/10/30 05:55:46;;;;;;;8.98;1.23;;;14.50;99.90;;;;;;4954415;28;20031;-73
2023/10/30 05:58:12;;;;;;;6.78;1.30;;;14.60;99.90;;;;;;4955248;28;20027;-73
2023/10/30 06:00:38;;;;;;;11.52;2.05;;;14.60;99.90;;;;;;4953814;28;20035;-73
2023/10/30 06:03:06;;;;;;;15.40;2.22;;;14.70;99.90;;;;;;4954131;29;20031;-72
2023/10/30 06:05:32;;;;;;;7.47;1.20;;;14.70;99.90;;;;;;4952316;28;20473;-73
2023/10/30 06:07:58;;;;;;;11.75;1.95;;;14.80;99.90;;;;;;4949128;28;20033;-74
2023/10/30 06:10:23;;;;;;;8.55;2.05;;;14.80;99.90;;;;;;4958994;28;20066;-72
2023/10/30 06:12:50;;;;;;;11.95;2.88;;;14.70;99.90;;;;;;4952329;28;20090;-70
2023/10/30 06:15:16;;;;;;;12.02;2.30;;;14.70;99.90;;;;;;4954950;28;20046;-72
2023/10/30 06:17:41;;;;;;;12.18;2.70;;;14.60;99.90;;;;;;4955201;28;20027;-73
2023/10/30 06:20:07;;;;;;;15.13;2.97;;;14.60;99.90;;;;;;4955120;28;20473;-72
2023/10/30 06:22:33;;;;;;;11.57;2.40;;;14.60;99.90;;;;;;4954920;28;20043;-71
2023/10/30 06:25:00;;;;;;;8.20;2.22;;;14.60;99.90;;;;;;4954447;28;20027;-72
2023/10/30 06:27:27;;;;;;;11.85;2.50;;;14.60;99.90;;;;;;4952598;28;20119;-70
2023/10/30 06:29:52;;;;;;;9.20;2.00;;;14.60;99.90;;;;;;4954705;28;20074;-71
2023/10/30 06:32:18;;;;;;;8.73;2.55;;;14.60;99.90;;;;;;4952506;28;20047;-71
2023/10/30 06:34:44;;;;;;;6.95;2.20;;;14.60;99.90;;;;;;4953820;28;20032;-72
2023/10/30 06:37:09;;;;;;;12.50;2.88;;;14.60;99.90;;;;;;4954455;28;20023;-72
2023/10/30 06:39:35;;;;;;;9.25;2.70;;;14.60;99.90;;;;;;4955066;28;20034;-72
2023/10/30 06:42:02;;;;;;;9.63;2.38;;;14.60;99.90;;;;;;4953807;29;20039;-72
2023/10/30 06:44:28;;;;;;;10.85;3.13;;;14.60;99.90;;;;;;4954733;28;20063;-71
2023/10/30 06:46:55;;;;;;;6.72;2.83;;;14.60;99.90;;;;;;4954955;28;20107;-71
2023/10/30 06:49:21;;;;;;;8.82;2.53;;;14.60;99.90;;;;;;4954972;28;20114;-73
2023/10/30 06:51:47;;;;;;;14.10;3.35;;;14.60;99.90;;;;;;4955103;28;20106;-72
2023/10/30 06:54:13;;;;;;;10.23;3.13;;;14.60;99.90;;;;;;4953093;28;20019;-73
2023/10/30 06:56:39;;;;;;;9.95;2.45;;;14.60;99.90;;;;;;4954983;28;20030;-73
2023/10/30 06:59:05;;;;;;;13.35;3.10;;;14.60;99.90;;;;;;4954684;28;20020;-73
2023/10/30 07:01:44;;;;;;;10.85;3.28;;;14.60;99.90;;;;;;4951967;28;20481;-73
2023/10/30 07:04:11;;;;;;;10.98;2.65;;;14.70;99.90;;;;;;4949961;29;20031;-73
2023/10/30 07:06:41;;;;;;;13.05;3.20;;;14.60;99.90;;;;;;4954802;28;20098;-72
2023/10/30 07:09:07;;;;;;;12.25;3.45;;;14.70;99.90;;;;;;4952409;28;20098;-73
2023/10/30 07:11:36;;;;;;;7.43;2.30;;;14.80;99.90;;;;;;4953952;28;20019;-73
2023/10/30 07:14:03;;;;;;;9.88;2.58;;;14.80;99.90;;;;;;4953697;28;20039;-74
2023/10/30 07:16:29;;;;;;;11.40;1.92;;;14.80;99.90;;;;;;4954117;28;20033;-74
2023/10/30 07:18:58;;;;;;;12.82;3.60;;;14.90;99.90;;;;;;4953765;28;20102;-72
2023/10/30 07:21:25;;;;;;;10.10;2.47;;;14.90;99.90;;;;;;4949456;28;20059;-72
2023/10/30 07:23:51;;;;;;;13.50;6.22;;;14.80;99.90;;;;;;4953832;28;20106;-71
2023/10/30 07:26:17;;;;;;;13.35;3.63;;;14.80;99.90;;;;;;4949959;28;20154;-72
2023/10/30 07:28:43;;;;;;;9.88;3.10;;;14.80;99.90;;;;;;4953959;28;20051;-73
2023/10/30 07:31:09;;;;;;;12.82;2.92;;;14.80;99.90;;;;;;4953589;28;20023;-72
2023/10/30 07:33:35;;;;;;;14.60;2.85;;;14.90;99.90;;;;;;4953353;28;20098;-73
2023/10/30 07:36:01;;;;;;;12.57;2.72;;;14.90;99.90;;;;;;4953167;28;20465;-73
2023/10/30 07:38:28;;;;;;;8.90;2.15;;;14.90;99.90;;;;;;4967647;28;20074;-70
2023/10/30 07:40:54;;;;;;;14.65;2.72;;;15.00;99.90;;;;;;4945372;28;20042;-73
2023/10/30 07:43:21;;;;;;;11.73;3.33;;;14.90;99.90;;;;;;4952576;28;20114;-72
2023/10/30 07:45:50;;;;;;;12.50;2.35;;;15.00;99.90;;;;;;4954438;28;20505;-73
2023/10/30 07:48:16;;;;;;;9.30;2.28;;;15.00;99.90;;;;;;4953951;28;20015;-74
2023/10/30 07:50:43;;;;;;;10.10;1.77;;;15.00;99.90;;;;;;4956913;28;20034;-74
2023/10/30 07:53:08;;;;;;;6.60;2.15;;;15.00;99.90;;;;;;4955249;28;20388;-75
2023/10/30 07:55:36;;;;;;;8.93;2.03;;;15.00;99.90;;;;;;4957382;28;20024;-76
2023/10/30 07:58:04;;;;;;;9.65;1.88;;;15.00;99.90;;;;;;4956872;28;20023;-75
2023/10/30 08:00:30;;;;;;;8.63;1.88;;;15.10;99.90;;;;;;4950706;28;20428;-73
2023/10/30 08:02:55;;;;;;;11.57;2.08;;;15.10;99.90;;;;;;4957290;28;20047;-74
2023/10/30 08:05:22;;;;;;;11.60;2.28;;;15.10;99.90;;;;;;4954165;28;20528;-73
2023/10/30 08:07:48;;;;;;;7.43;2.30;;;15.10;99.90;;;;;;4954588;28;20074;-74
2023/10/30 08:10:13;;;;;;;8.40;1.90;;;15.20;99.90;;;;;;4955435;28;20454;-73
2023/10/30 08:12:40;;;;;;;14.75;2.88;;;15.20;99.90;;;;;;4957680;28;20027;-71
2023/10/30 08:15:07;;;;;;;9.85;2.17;;;15.20;99.90;;;;;;4956012;28;20031;-71
2023/10/30 08:17:33;;;;;;;8.88;1.65;;;15.30;99.90;;;;;;4960285;28;20110;-71
2023/10/30 08:19:59;;;;;;;13.05;2.50;;;15.30;99.90;;;;;;4971160;28;20023;-74
2023/10/30 08:22:25;;;;;;;11.48;2.22;;;15.30;99.90;;;;;;4951698;28;20480;-73
2023/10/30 08:24:51;;;;;;;12.50;2.38;;;15.30;99.90;;;;;;4954327;28;20024;-73
2023/10/30 08:27:17;;;;;;;9.65;2.08;;;15.30;99.90;;;;;;4954788;28;20058;-74
2023/10/30 08:29:43;;;;;;;14.57;1.95;;;15.20;99.90;;;;;;4955111;28;20469;-75
2023/10/30 08:32:08;;;;;;;9.73;2.67;;;15.20;99.90;;;;;;4954110;28;20106;-76
2023/10/30 08:34:34;;;;;;;9.00;2.22;;;15.30;99.90;;;;;;4955672;28;20039;-75
2023/10/30 08:36:59;;;;;;;11.45;2.38;;;15.30;99.90;;;;;;4955506;28;20020;-73
2023/10/30 08:39:25;;;;;;;11.90;3.00;;;15.30;99.90;;;;;;4957296;28;20465;-73
2023/10/30 08:41:51;;;;;;;9.95;2.78;;;15.30;99.90;;;;;;4956370;28;20134;-76
2023/10/30 08:44:16;;;;;;;8.73;2.22;;;15.30;99.90;;;;;;4955695;28;20042;-76
2023/10/30 08:46:42;;;;;;;9.50;2.30;;;15.40;99.90;;;;;;4953513;28;20066;-75
2023/10/30 08:49:08;;;;;;;11.77;2.17;;;15.40;99.90;;;;;;4956371;28;20026;-74
2023/10/30 08:51:41;;;;;;;9.70;2.20;;;15.50;99.90;;;;;;4956364;28;20037;-75
2023/10/30 08:54:07;;;;;;;10.73;3.05;;;15.50;99.90;;;;;;4937512;29;20031;-75
2023/10/30 08:56:33;;;;;;;11.85;2.10;;;15.50;99.90;;;;;;4962834;28;20027;-75
2023/10/30 08:58:59;;;;;;;9.15;2.00;;;15.50;99.90;;;;;;4950716;28;20027;-76
2023/10/30 09:01:26;;;;;;;8.40;1.77;;;15.50;99.90;;;;;;4948879;28;20042;-73
2023/10/30 09:03:52;;;;;;;12.15;2.45;;;15.50;99.90;;;;;;4950569;28;20101;-74
2023/10/30 09:06:18;;;;;;;8.65;2.05;;;15.50;99.90;;;;;;4954018;28;20032;-73
2023/10/30 09:08:44;;;;;;;7.35;1.80;;;15.50;99.90;;;;;;4954293;28;20035;-72
2023/10/30 09:11:10;;;;;;;10.32;1.75;;;15.50;99.90;;;;;;4957200;28;20032;-72
2023/10/30 09:13:36;;;;;;;11.07;1.85;;;15.50;99.90;;;;;;4946176;28;20096;-72
2023/10/30 09:16:02;;;;;;;10.85;2.22;;;15.50;99.90;;;;;;4951802;28;20036;-71
2023/10/30 09:18:27;;;;;;;7.65;2.03;;;15.60;99.90;;;;;;4954465;29;20059;-75
2023/10/30 09:20:53;;;;;;;13.18;2.10;;;15.60;99.90;;;;;;4955789;28;20085;-73
2023/10/30 09:23:18;;;;;;;17.23;3.17;;;15.60;99.90;;;;;;4955453;29;20152;-71
2023/10/30 09:25:44;;;;;;;12.13;2.80;;;15.60;99.90;;;;;;4953096;28;20362;-70
2023/10/30 09:28:11;;;;;;;12.50;1.90;;;15.50;99.90;;;;;;4954279;28;20035;-72
2023/10/30 09:30:36;;;;;;;11.60;2.10;;;15.50;99.90;;;;;;4953875;28;20030;-72
2023/10/30 09:33:03;;;;;;;8.02;1.60;;;15.50;99.90;;;;;;4954476;28;20035;-71
2023/10/30 09:35:30;;;;;;;9.75;1.83;;;15.50;99.90;;;;;;4954977;29;20107;-74
2023/10/30 09:37:56;;;;;;;14.43;2.47;;;15.60;99.90;;;;;;4956694;28;20030;-74
2023/10/30 09:40:26;;;;;;;9.18;1.65;;;15.60;99.90;;;;;;4967175;28;20519;-75
2023/10/30 09:42:52;;;;;;;11.07;2.30;;;15.60;99.90;;;;;;4951273;28;20586;-74
2023/10/30 09:45:23;;;;;;;10.88;2.00;;;15.60;99.90;;;;;;4956284;28;20483;-72
2023/10/30 09:47:55;;;;;;;8.70;1.90;;;15.60;99.90;;;;;;4952555;28;20553;-74
2023/10/30 09:50:22;;;;;;;9.77;2.22;;;15.60;99.90;;;;;;4954667;28;20063;-73
2023/10/30 09:52:52;;;;;;;7.43;1.65;;;15.60;99.90;;;;;;4954525;28;20031;-74
2023/10/30 09:55:20;;;;;;;10.68;1.98;;;15.60;99.90;;;;;;4954077;28;20059;-73
2023/10/30 09:57:53;;;;;;;8.48;2.00;;;15.60;99.90;;;;;;4954000;28;20023;-73
2023/10/30 10:00:19;;;;;;;7.55;1.65;;;15.60;99.90;;;;;;4954884;28;20039;-72
2023/10/30 10:02:45;;;;;;;11.13;2.28;;;15.60;99.90;;;;;;4951425;28;20043;-72
2023/10/30 10:05:12;;;;;;;11.05;2.50;;;15.60;99.90;;;;;;4954365;28;20130;-72
2023/10/30 10:07:39;;;;;;;9.57;1.85;;;15.60;99.90;;;;;;4954153;28;20066;-71
2023/10/30 10:10:07;;;;;;;8.30;2.10;;;15.60;99.90;;;;;;4969752;28;20031;-71
2023/10/30 10:12:34;;;;;;;12.82;2.67;;;15.60;99.90;;;;;;4953534;28;20189;-72
2023/10/30 10:15:06;;;;;;;6.93;2.47;;;15.60;99.90;;;;;;4951406;28;20034;-73
2023/10/30 10:17:31;;;;;;;10.00;2.78;;;15.60;99.90;;;;;;4953153;28;20023;-71
2023/10/30 10:20:03;;;;;;;7.30;2.42;;;15.70;99.90;;;;;;4953924;28;20030;-73
2023/10/30 10:22:31;;;;;;;7.75;1.95;;;15.70;99.90;;;;;;4950713;29;20156;-73
2023/10/30 10:24:57;;;;;;;13.98;2.60;;;15.70;99.90;;;;;;4952678;28;20038;-72
2023/10/30 10:27:26;;;;;;;10.70;2.78;;;15.70;99.90;;;;;;4951318;28;20027;-72
2023/10/30 10:29:54;;;;;;;6.70;2.13;;;15.60;99.90;;;;;;4949295;29;20604;-72
2023/10/30 10:32:25;;;;;;;5.97;1.60;;;15.60;99.90;;;;;;4954125;28;20042;-70
2023/10/30 10:34:51;;;;;;;6.55;2.20;;;15.60;99.90;;;;;;4950931;28;20035;-70
2023/10/30 10:37:18;;;;;;;8.13;2.30;;;15.60;99.90;;;;;;4951214;28;20047;-73
2023/10/30 10:39:51;;;;;;;4.75;1.40;;;15.60;99.90;;;;;;4951765;28;20054;-71
2023/10/30 10:42:18;;;;;;;5.75;1.95;;;15.60;99.90;;;;;;4950106;28;20027;-72
2023/10/30 10:44:49;;;;;;;11.77;2.30;;;15.70;99.90;;;;;;4950848;29;20038;-71
2023/10/30 10:47:17;;;;;;;9.45;1.75;;;15.70;99.90;;;;;;4951658;28;20073;-73
2023/10/30 10:49:43;;;;;;;6.13;2.00;;;15.70;99.90;;;;;;4952240;28;20046;-70
2023/10/30 10:52:10;;;;;;;10.95;2.78;;;15.70;99.90;;;;;;4952316;28;20102;-71
2023/10/30 10:54:54;;;;;;;11.70;2.67;;;15.70;99.90;;;;;;4950139;28;20011;-72
2023/10/30 10:57:22;;;;;;;7.93;2.13;;;15.70;99.90;;;;;;4949267;28;20030;-71
2023/10/30 10:59:55;;;;;;;9.18;2.30;;;15.70;99.90;;;;;;4947954;28;20027;-72
2023/10/30 11:02:29;;;;;;;11.40;2.10;;;15.70;99.90;;;;;;4952931;28;20381;-71
2023/10/30 11:04:55;;;;;;;6.13;1.48;;;15.80;99.90;;;;;;4952402;28;20036;-70
2023/10/30 11:07:34;;;;;;;8.73;2.28;;;15.70;99.90;;;;;;4952910;28;20560;-70
2023/10/30 11:10:12;;;;;;;6.60;1.67;;;15.80;99.90;;;;;;4954169;29;20027;-70
2023/10/30 11:12:53;;;;;;;8.75;1.90;;;15.70;99.90;;;;;;4952300;28;20105;-72
2023/10/30 11:15:35;;;;;;;7.22;1.95;;;15.80;99.90;;;;;;4952478;28;20106;-73
2023/10/30 11:18:21;;;;;;;7.53;1.60;;;15.80;99.90;;;;;;4953685;28;20027;-73
2023/10/30 11:21:06;;;;;;;7.32;2.30;;;15.80;99.90;;;;;;4953337;28;20059;-72
2023/10/30 11:23:56;;;;;;;7.22;2.00;;;15.80;99.90;;;;;;4941180;29;20027;-71
2023/10/30 11:26:40;;;;;;;4.25;1.75;;;15.80;99.90;;;;;;4951457;29;20384;-72
2023/10/30 11:29:08;;;;;;;7.15;2.25;;;15.80;99.90;;;;;;4954709;28;20070;-72
2023/10/30 11:32:00;;;;;;;5.75;1.92;;;15.80;99.90;;;;;;4957527;28;20057;-73
2023/10/30 11:34:37;;;;;;;12.25;2.75;;;15.80;99.90;;;;;;4956927;28;20122;-72
2023/10/30 11:37:15;;;;;;;7.90;2.47;;;15.90;99.90;;;;;;4959648;28;20032;-73
2023/10/30 11:39:45;;;;;;;7.15;2.13;;;15.90;99.90;;;;;;4955935;29;20542;-73
2023/10/30 11:42:40;;;;;;;7.78;2.67;;;15.90;99.90;;;;;;4956697;28;20039;-73
2023/10/30 11:45:24;;;;;;;10.68;2.92;;;15.90;99.90;;;;;;4947221;28;20477;-73
2023/10/30 11:48:04;;;;;;;9.35;2.72;;;15.90;99.90;;;;;;4937788;29;20030;-72
2023/10/30 11:50:36;;;;;;;6.18;2.13;;;15.90;99.90;;;;;;4955274;29;20027;-71
2023/10/30 11:53:09;;;;;;;6.15;2.08;;;16.00;99.90;;;;;;4971633;28;20472;-72
2023/10/30 11:55:39;;;;;;;6.05;2.10;;;16.00;99.90;;;;;;4953572;29;20098;-72
2023/10/30 11:58:05;;;;;;;6.53;2.20;;;16.00;99.90;;;;;;4957742;28;20019;-72
2023/10/30 12:00:31;;;;;;;7.10;2.05;;;16.00;99.90;;;;;;4954721;28;20547;-72
2023/10/30 12:02:57;;;;;;;4.93;1.88;;;16.00;99.90;;;;;;4955893;28;20032;-73
2023/10/30 12:05:27;;;;;;;4.50;2.30;;;16.00;99.90;;;;;;4957576;28;20456;-73
2023/10/30 12:07:53;;;;;;;7.43;2.90;;;16.00;99.90;;;;;;4957751;28;20468;-73
2023/10/30 12:10:19;;;;;;;8.48;3.20;;;16.10;99.90;;;;;;4956844;28;20039;-72
2023/10/30 12:12:50;;;;;;;7.13;2.67;;;16.00;99.90;;;;;;4957705;28;20027;-73
2023/10/30 12:15:27;;;;;;;8.65;2.25;;;16.00;99.90;;;;;;4956355;28;20027;-73
2023/10/30 12:17:55;;;;;;;6.97;2.65;;;16.10;99.90;;;;;;4972388;28;20034;-72
2023/10/30 12:20:21;;;;;;;10.02;3.40;;;16.00;99.90;;;;;;4954823;29;20106;-73
2023/10/30 12:22:47;;;;;;;10.00;3.22;;;16.10;99.90;;;;;;4956158;28;20227;-73
2023/10/30 12:25:17;;;;;;;8.02;3.85;;;16.10;99.90;;;;;;4956101;28;20023;-72
2023/10/30 12:27:43;;;;;;;9.10;3.40;;;16.10;99.90;;;;;;4956067;28;20555;-72
2023/10/30 12:30:16;;;;;;;8.55;2.60;;;16.10;99.90;;;;;;4955079;28;20095;-73
2023/10/30 12:32:52;;;;;;;11.40;3.45;;;16.10;99.90;;;;;;4970444;28;20066;-72
2023/10/30 12:35:21;;;;;;;8.88;3.35;;;16.10;99.90;;;;;;4955641;28;20896;-72
2023/10/30 12:37:57;;;;;;;8.93;3.17;;;16.20;99.90;;;;;;4952469;29;20043;-71
2023/10/30 12:40:23;;;;;;;11.60;3.10;;;16.20;99.90;;;;;;4950942;28;20082;-70
2023/10/30 12:42:49;;;;;;;9.55;3.13;;;16.20;99.90;;;;;;4954347;29;20493;-69